Time;durP1;ratioP1;P1;durP2;ratioP2;P2;SDS_P1;SDS_P2;PMS_P1;PMS_P2;Temp;Humidity;BMP_temperature;BMP_pressure;BME280_temperature;BME280_humidity;BME280_pressure;Samples;Min_cycle;Max_cycle;Signal;HPM_P1;HPM_P2
2023/10/25 00:02:21;;;;;;;;;;;;;;;9.32;100.00;95444.41;5106206;28;19936;-73
2023/10/25 00:04:47;;;;;;;;;;;;;;;9.32;100.00;95448.81;5106688;28;19941;-73
2023/10/25 00:07:13;;;;;;;;;;;;;;;9.32;100.00;95448.81;5106161;28;19938;-72
2023/10/25 00:09:39;;;;;;;;;;;;;;;9.32;100.00;95446.19;5106604;28;19940;-76
2023/10/25 00:12:05;;;;;;;;;;;;;;;9.31;100.00;95449.84;5106798;28;20213;-76
2023/10/25 00:14:31;;;;;;;;;;;;;;;9.29;100.00;95446.69;5105624;28;19938;-76
2023/10/25 00:16:57;;;;;;;;;;;;;;;9.29;100.00;95446.69;5105693;28;19994;-76
2023/10/25 00:19:22;;;;;;;;;;;;;;;9.28;100.00;95439.84;5105856;28;20220;-76
2023/10/25 00:21:48;;;;;;;;;;;;;;;9.29;100.00;95447.47;5105765;28;20009;-76
2023/10/25 00:24:14;;;;;;;;;;;;;;;9.29;100.00;95457.16;5106556;28;20177;-72
2023/10/25 00:26:40;;;;;;;;;;;;;;;9.28;100.00;95453.75;5105389;28;19936;-73
2023/10/25 00:29:06;;;;;;;;;;;;;;;9.29;100.00;95451.91;5105609;28;19938;-78
2023/10/25 00:31:31;;;;;;;;;;;;;;;9.28;100.00;95450.31;5105584;28;19936;-79
2023/10/25 00:33:57;;;;;;;;;;;;;;;9.25;100.00;95448.97;5106050;28;20361;-79
2023/10/25 00:36:23;;;;;;;;;;;;;;;9.27;100.00;95448.75;5105985;28;19946;-79
2023/10/25 00:38:49;;;;;;;;;;;;;;;9.26;100.00;95439.28;5105987;28;19947;-79
2023/10/25 00:41:15;;;;;;;;;;;;;;;9.26;100.00;95445.34;5105433;28;19947;-80
2023/10/25 00:43:41;;;;;;;;;;;;;;;9.26;100.00;95445.34;5105426;28;19936;-79
2023/10/25 00:46:15;;;;;;;;;;;;;;;9.27;100.00;95444.28;5105333;28;19966;-73
2023/10/25 00:48:45;;;;;;;;;;;;;;;9.27;100.00;95444.28;5105737;28;19932;-72
2023/10/25 00:51:12;;;;;;;;;;;;;;;9.28;100.00;95443.28;5105217;28;19953;-72
2023/10/25 00:53:40;;;;;;;;;;;;;;;9.27;100.00;95449.53;5105176;28;19936;-72
2023/10/25 00:56:09;;;;;;;;;;;;;;;9.27;100.00;95441.69;5105065;28;19939;-72
2023/10/25 00:58:35;;;;;;;;;;;;;;;9.29;100.00;95447.47;5105878;28;19937;-73
2023/10/25 01:01:01;;;;;;;;;;;;;;;9.28;100.00;95450.31;5105054;28;19972;-72
2023/10/25 01:03:27;;;;;;;;;;;;;;;9.28;100.00;95458.16;5105524;28;19946;-74
2023/10/25 01:05:54;;;;;;;;;;;;;;;9.29;100.00;95465.00;5104981;28;19938;-73
2023/10/25 01:08:20;;;;;;;;;;;;;;;9.27;100.00;95464.44;5104946;28;20244;-73
2023/10/25 01:10:49;;;;;;;;;;;;;;;9.26;100.00;95453.19;5104813;28;19936;-73
2023/10/25 01:13:16;;;;;;;;;;;;;;;9.25;100.00;95442.94;5104818;28;20119;-72
2023/10/25 01:15:42;;;;;;;;;;;;;;;9.24;100.00;95441.34;5104614;28;20036;-73
2023/10/25 01:18:07;;;;;;;;;;;;;;;9.24;100.00;95449.19;5105208;28;19977;-72
2023/10/25 01:20:33;;;;;;;;;;;;;;;9.23;100.00;95448.41;5104725;28;19988;-80
2023/10/25 01:22:59;;;;;;;;;;;;;;;9.23;100.00;95453.63;5105482;28;19944;-77
2023/10/25 01:25:25;;;;;;;;;;;;;;;9.21;100.00;95445.22;5104301;28;19941;-78
2023/10/25 01:27:51;;;;;;;;;;;;;;;9.19;100.00;95438.66;5103491;28;19946;-78
2023/10/25 01:30:17;;;;;;;;;;;;;;;9.19;100.00;95444.66;5104516;28;19936;-78
2023/10/25 01:32:43;;;;;;;;;;;;;;;9.19;100.00;95438.66;5104490;28;20222;-78
2023/10/25 01:35:10;;;;;;;;;;;;;;;9.18;100.00;95440.47;5104425;28;19947;-77
2023/10/25 01:37:36;;;;;;;;;;;;;;;9.17;100.00;95438.88;5104404;28;20149;-80
2023/10/25 01:40:05;;;;;;;;;;;;;;;9.16;100.00;95433.91;5103292;28;19938;-72
2023/10/25 01:42:31;;;;;;;;;;;;;;;9.14;100.00;95429.66;5104936;28;19954;-81
2023/10/25 01:44:57;;;;;;;;;;;;;;;9.13;100.00;95441.19;5104365;28;19933;-80
2023/10/25 01:47:23;;;;;;;;;;;;;;;9.10;100.00;95433.00;5104258;28;19949;-81
2023/10/25 01:49:49;;;;;;;;;;;;;;;9.09;100.00;95442.66;5103917;28;19941;-82
2023/10/25 01:52:14;;;;;;;;;;;;;;;9.07;100.00;95439.50;5104534;28;19985;-82
2023/10/25 01:54:42;;;;;;;;;;;;;;;9.04;100.00;95434.72;5104246;28;19936;-82
2023/10/25 01:57:08;;;;;;;;;;;;;;;9.03;100.00;95429.72;5104683;28;19956;-77
2023/10/25 01:59:34;;;;;;;;;;;;;;;9.01;100.00;95427.34;5103157;28;19939;-77
2023/10/25 02:02:00;;;;;;;;;;;;;;;8.98;100.00;95427.00;5104120;28;19942;-78
2023/10/25 02:04:26;;;;;;;;;;;;;;;8.96;100.00;95422.00;5104960;28;20167;-78
2023/10/25 02:06:52;;;;;;;;;;;;;;;8.94;100.00;95424.88;5104885;28;20000;-78
2023/10/25 02:09:18;;;;;;;;;;;;;;;8.91;100.00;95416.69;5104630;28;19937;-78
2023/10/25 02:11:44;;;;;;;;;;;;;;;8.89;100.00;95419.53;5104590;28;19934;-78
2023/10/25 02:14:10;;;;;;;;;;;;;;;8.88;100.00;95414.53;5104051;28;20127;-78
2023/10/25 02:16:36;;;;;;;;;;;;;;;8.87;100.00;95405.88;5106781;28;19968;-72
2023/10/25 02:19:02;;;;;;;;;;;;;;;8.87;100.00;95410.34;5108179;28;20004;-73
2023/10/25 02:21:27;;;;;;;;;;;;;;;8.86;100.00;95408.72;5069552;28;19941;-72
2023/10/25 02:23:53;;;;;;;;;;;;;;;8.83;100.00;95402.16;5086257;28;19935;-73
2023/10/25 02:26:19;;;;;;;;;;;;;;;8.82;100.00;95400.56;5069456;28;20223;-73
2023/10/25 02:28:45;;;;;;;;;;;;;;;8.82;100.00;95399.75;5085908;28;19978;-73
2023/10/25 02:31:11;;;;;;;;;;;;;;;8.81;100.00;95395.56;5086718;28;19946;-72
2023/10/25 02:33:37;;;;;;;;;;;;;;;8.80;100.00;95386.13;5069153;28;19938;-72
2023/10/25 02:36:03;;;;;;;;;;;;;;;8.79;100.00;95380.13;5085790;28;20145;-77
2023/10/25 02:38:29;;;;;;;;;;;;;;;8.79;100.00;95382.72;5086487;28;20112;-72
2023/10/25 02:40:55;;;;;;;;;;;;;;;8.79;100.00;95369.66;5086544;28;19943;-73
2023/10/25 02:43:20;;;;;;;;;;;;;;;8.78;100.00;95365.47;5085711;28;19963;-73
2023/10/25 02:45:46;;;;;;;;;;;;;;;8.79;100.00;95380.13;5086393;28;20092;-72
2023/10/25 02:48:15;;;;;;;;;;;;;;;8.79;100.00;95363.66;5085602;28;19935;-72
2023/10/25 02:50:41;;;;;;;;;;;;;;;8.76;100.00;95372.75;5086086;28;19946;-72
2023/10/25 02:53:07;;;;;;;;;;;;;;;8.77;100.00;95374.31;5086305;28;19934;-72
2023/10/25 02:55:33;;;;;;;;;;;;;;;8.76;100.00;95372.75;5068869;28;19938;-81
2023/10/25 02:57:59;;;;;;;;;;;;;;;8.77;100.00;95365.69;5088224;28;19956;-81
2023/10/25 03:00:25;;;;;;;;;;;;;;;8.76;100.00;95359.69;5106211;28;19939;-81
2023/10/25 03:02:51;;;;;;;;;;;;;;;8.77;100.00;95365.69;5107362;28;19937;-81
2023/10/25 03:05:17;;;;;;;;;;;;;;;8.76;100.00;95369.31;5107862;28;20006;-81
2023/10/25 03:07:42;;;;;;;;;;;;;;;8.74;100.00;95367.75;5108032;28;19929;-81
2023/10/25 03:10:08;;;;;;;;;;;;;;;8.71;100.00;95368.22;5106602;28;20244;-78
2023/10/25 03:12:34;;;;;;;;;;;;;;;8.70;100.00;95371.06;5107212;28;19928;-76
2023/10/25 03:15:00;;;;;;;;;;;;;;;8.68;100.00;95362.66;5107896;28;19973;-71
2023/10/25 03:17:26;;;;;;;;;;;;;;;8.68;100.00;95360.84;5106969;28;19969;-71
2023/10/25 03:19:52;;;;;;;;;;;;;;;8.67;100.00;95358.44;5107243;28;19940;-71
2023/10/25 03:22:18;;;;;;;;;;;;;;;8.66;100.00;95362.09;5107446;28;20251;-71
2023/10/25 03:24:44;;;;;;;;;;;;;;;8.66;100.00;95349.03;5107480;28;19946;-71
2023/10/25 03:27:09;;;;;;;;;;;;;;;8.64;100.00;95356.31;5106705;28;19945;-71
2023/10/25 03:29:36;;;;;;;;;;;;;;;8.62;100.00;95351.31;5106842;28;19939;-77
2023/10/25 03:32:02;;;;;;;;;;;;;;;8.61;100.00;95357.56;5107560;28;19938;-72
2023/10/25 03:34:29;;;;;;;;;;;;;;;8.57;100.00;95351.22;5107218;28;19965;-73
2023/10/25 03:36:55;;;;;;;;;;;;;;;8.54;100.00;95344.63;5107409;28;19948;-72
2023/10/25 03:39:20;;;;;;;;;;;;;;;8.51;100.00;95339.06;5106702;28;19937;-72
2023/10/25 03:41:46;;;;;;;;;;;;;;;8.49;100.00;95351.59;5106296;28;19977;-73
2023/10/25 03:44:12;;;;;;;;;;;;;;;8.47;100.00;95346.56;5107402;28;19932;-72
2023/10/25 03:46:38;;;;;;;;;;;;;;;8.44;100.00;95347.06;5107044;28;19935;-72
2023/10/25 03:49:04;;;;;;;;;;;;;;;8.42;100.00;95350.91;5106508;28;20002;-72
2023/10/25 03:51:31;;;;;;;;;;;;;;;8.40;100.00;95340.66;5106438;28;19943;-73
2023/10/25 03:53:57;;;;;;;;;;;;;;;8.39;100.00;95335.66;5106369;28;20124;-73
2023/10/25 03:56:23;;;;;;;;;;;;;;;8.36;100.00;95342.16;5106854;28;19957;-73
2023/10/25 03:58:48;;;;;;;;;;;;;;;8.34;100.00;95350.22;5106184;28;19956;-73
2023/10/25 04:01:14;;;;;;;;;;;;;;;8.34;100.00;95354.66;5106797;28;19938;-72
2023/10/25 04:03:41;;;;;;;;;;;;;;;8.33;100.00;95350.44;5106707;28;19938;-73
2023/10/25 04:06:07;;;;;;;;;;;;;;;8.30;100.00;95346.47;5106127;28;19947;-79
2023/10/25 04:08:33;;;;;;;;;;;;;;;8.30;100.00;95346.47;5106112;28;19958;-76
2023/10/25 04:10:59;;;;;;;;;;;;;;;8.26;100.00;95341.94;5105993;28;19934;-76
2023/10/25 04:13:25;;;;;;;;;;;;;;;8.22;100.00;95336.38;5106562;28;19941;-75
2023/10/25 04:15:57;;;;;;;;;;;;;;;8.16;100.00;95332.06;5105244;28;20152;-76
2023/10/25 04:18:24;;;;;;;;;;;;;;;8.05;100.00;95323.22;5105821;28;19959;-76
2023/10/25 04:20:50;;;;;;;;;;;;;;;7.97;100.00;95312.34;5106387;28;20227;-76
2023/10/25 04:23:16;;;;;;;;;;;;;;;7.92;100.00;95315.66;5105796;28;19937;-75
2023/10/25 04:25:42;;;;;;;;;;;;;;;7.89;100.00;95316.88;5106321;28;20001;-77
2023/10/25 04:28:08;;;;;;;;;;;;;;;7.90;100.00;95320.31;5104567;28;19989;-72
2023/10/25 04:30:34;;;;;;;;;;;;;;;7.87;100.00;95312.91;5106209;28;19948;-72
2023/10/25 04:33:00;;;;;;;;;;;;;;;7.87;100.00;95318.13;5104747;28;19996;-72
2023/10/25 04:35:26;;;;;;;;;;;;;;;7.86;100.00;95317.34;5105484;28;19959;-72
2023/10/25 04:37:52;;;;;;;;;;;;;;;7.84;100.00;95310.78;5104974;28;19953;-72
2023/10/25 04:40:18;;;;;;;;;;;;;;;7.85;100.00;95313.16;5105191;28;20218;-72
2023/10/25 04:42:46;;;;;;;;;;;;;;;7.84;100.00;95303.75;5105449;28;20000;-72
2023/10/25 04:45:12;;;;;;;;;;;;;;;7.79;100.00;95292.38;5105402;28;20013;-70
2023/10/25 04:47:37;;;;;;;;;;;;;;;7.71;100.00;95293.53;5106105;28;19941;-72
2023/10/25 04:50:04;;;;;;;;;;;;;;;7.66;100.00;95286.38;5105788;28;19945;-71
2023/10/25 04:52:30;;;;;;;;;;;;;;;7.65;100.00;95276.97;5105191;28;19942;-70
2023/10/25 04:54:56;;;;;;;;;;;;;;;7.61;100.00;95280.28;5105180;28;19933;-72
2023/10/25 04:57:22;;;;;;;;;;;;;;;7.62;100.00;95274.84;5105044;28;20021;-72
2023/10/25 04:59:48;;;;;;;;;;;;;;;7.67;100.00;95267.09;5105079;28;19935;-72
2023/10/25 05:02:14;;;;;;;;;;;;;;;7.75;100.00;95272.97;5105420;28;19962;-71
2023/10/25 05:04:40;;;;;;;;;;;;;;;7.80;100.00;95265.28;5105009;28;20224;-76
2023/10/25 05:07:06;;;;;;;;;;;;;;;7.86;100.00;95272.19;5104898;28;19938;-76
2023/10/25 05:09:32;;;;;;;;;;;;;;;7.89;100.00;95263.91;5105198;28;20121;-76
2023/10/25 05:12:02;;;;;;;;;;;;;;;7.91;100.00;95261.84;5104851;28;20142;-76
2023/10/25 05:14:28;;;;;;;;;;;;;;;7.93;100.00;95259.81;5104436;28;19949;-76
2023/10/25 05:16:54;;;;;;;;;;;;;;;7.93;100.00;95247.53;5103665;28;20038;-76
2023/10/25 05:19:20;;;;;;;;;;;;;;;7.93;100.00;95237.09;5086663;28;20298;-72
2023/10/25 05:21:47;;;;;;;;;;;;;;;7.94;100.00;95235.31;5105236;28;19993;-77
2023/10/25 05:24:13;;;;;;;;;;;;;;;7.93;100.00;95237.09;5103528;28;19943;-73
2023/10/25 05:26:39;;;;;;;;;;;;;;;7.95;100.00;95236.09;5104644;28;19947;-73
2023/10/25 05:29:05;;;;;;;;;;;;;;;7.92;100.00;95226.91;5104599;28;19934;-73
2023/10/25 05:31:34;;;;;;;;;;;;;;;7.92;100.00;95237.34;5105097;28;19934;-73
2023/10/25 05:34:00;;;;;;;;;;;;;;;7.90;100.00;95234.97;5104432;28;20219;-73
2023/10/25 05:36:26;;;;;;;;;;;;;;;7.89;100.00;95237.78;5104468;28;19936;-73
2023/10/25 05:38:52;;;;;;;;;;;;;;;7.88;100.00;95228.38;5105184;28;19963;-72
2023/10/25 05:41:19;;;;;;;;;;;;;;;7.86;100.00;95243.50;5103382;28;19937;-82
2023/10/25 05:43:47;;;;;;;;;;;;;;;7.85;100.00;95234.06;5103987;28;19938;-81
2023/10/25 05:46:13;;;;;;;;;;;;;;;7.84;100.00;95245.53;5086320;28;19945;-81
2023/10/25 05:48:39;;;;;;;;;;;;;;;7.80;100.00;95239.97;5103204;28;19930;-81
2023/10/25 05:51:05;;;;;;;;;;;;;;;7.78;100.00;95249.84;5103546;28;19941;-81
2023/10/25 05:53:31;;;;;;;;;;;;;;;7.75;100.00;95244.28;5104308;28;19946;-81
2023/10/25 05:55:57;;;;;;;;;;;;;;;7.67;100.00;95248.84;5104294;28;19935;-80
2023/10/25 05:58:23;;;;;;;;;;;;;;;7.56;100.00;95243.63;5086984;28;19955;-73
2023/10/25 06:00:51;;;;;;;;;;;;;;;7.46;100.00;95237.16;5104153;28;19937;-78
2023/10/25 06:03:19;;;;;;;;;;;;;;;7.31;100.00;95224.59;5104200;28;20224;-78
2023/10/25 06:05:50;;;;;;;;;;;;;;;7.16;100.00;95219.03;5104120;28;19935;-78
2023/10/25 06:08:16;;;;;;;;;;;;;;;7.03;100.00;95219.25;5104269;28;19947;-78
2023/10/25 06:10:42;;;;;;;;;;;;;;;7.01;100.00;95203.81;5104117;28;20002;-79
2023/10/25 06:13:09;;;;;;;;;;;;;;;7.05;100.00;95201.56;5104027;28;20227;-79
2023/10/25 06:15:35;;;;;;;;;;;;;;;7.10;100.00;95209.53;5103935;28;20137;-72
2023/10/25 06:18:01;;;;;;;;;;;;;;;7.14;100.00;95202.84;5104474;28;20123;-76
2023/10/25 06:20:27;;;;;;;;;;;;;;;7.17;100.00;95209.41;5102970;28;19934;-76
2023/10/25 06:22:55;;;;;;;;;;;;;;;7.18;100.00;95206.56;5104507;28;19936;-76
2023/10/25 06:25:21;;;;;;;;;;;;;;;7.20;100.00;95201.94;5103999;28;19933;-76
2023/10/25 06:27:47;;;;;;;;;;;;;;;7.21;100.00;95198.28;5103900;28;19956;-76
2023/10/25 06:30:13;;;;;;;;;;;;;;;7.23;100.00;95200.69;5103855;28;20012;-76
2023/10/25 06:32:39;;;;;;;;;;;;;;;7.24;100.00;95202.25;5103931;28;19942;-77
2023/10/25 06:35:05;;;;;;;;;;;;;;;7.20;100.00;95201.94;5103825;28;19949;-73
2023/10/25 06:37:31;;;;;;;;;;;;;;;7.20;100.00;95201.94;5103486;28;19942;-76
2023/10/25 06:39:57;;;;;;;;;;;;;;;7.15;100.00;95190.59;5104629;28;19952;-76
2023/10/25 06:42:23;;;;;;;;;;;;;;;7.02;100.00;95195.00;5103774;28;19971;-77
2023/10/25 06:44:50;;;;;;;;;;;;;;;6.94;100.00;95184.13;5103769;28;19932;-76
2023/10/25 06:47:16;;;;;;;;;;;;;;;6.91;100.00;95193.19;5103747;28;19937;-76
2023/10/25 06:49:42;;;;;;;;;;;;;;;6.98;100.00;95193.84;5104022;28;19989;-76
2023/10/25 06:52:09;;;;;;;;;;;;;;;7.05;100.00;95178.91;5103751;28;19941;-80
2023/10/25 06:54:35;;;;;;;;;;;;;;;7.16;100.00;95190.38;5102542;28;20110;-71
2023/10/25 06:57:01;;;;;;;;;;;;;;;7.17;100.00;95185.94;5103676;28;19981;-71
2023/10/25 06:59:27;;;;;;;;;;;;;;;7.14;100.00;95191.59;5103617;28;20244;-71
2023/10/25 07:01:57;;;;;;;;;;;;;;;7.11;100.00;95182.41;5103840;28;19939;-72
2023/10/25 07:04:25;;;;;;;;;;;;;;;7.11;100.00;95178.00;5108075;28;20132;-71
2023/10/25 07:06:52;;;;;;;;;;;;;;;7.18;100.00;95172.69;5108085;28;20128;-72
2023/10/25 07:09:18;;;;;;;;;;;;;;;7.20;100.00;95164.63;5107286;28;19940;-72
2023/10/25 07:11:44;;;;;;;;;;;;;;;7.19;100.00;95156.00;5106447;28;19987;-75
2023/10/25 07:14:09;;;;;;;;;;;;;;;7.26;100.00;95161.09;5107945;28;20267;-72
2023/10/25 07:16:36;;;;;;;;;;;;;;;7.38;100.00;95158.50;5105885;28;19963;-72
2023/10/25 07:19:01;;;;;;;;;;;;;;;7.57;100.00;95161.75;5107034;28;19959;-72
2023/10/25 07:21:27;;;;;;;;;;;;;;;7.76;100.00;95157.16;5107093;28;19939;-73
2023/10/25 07:23:53;;;;;;;;;;;;;;;7.92;100.00;95162.44;5107007;28;20021;-73
2023/10/25 07:26:19;;;;;;;;;;;;;;;8.05;100.00;95152.75;5107510;28;19933;-73
2023/10/25 07:28:45;;;;;;;;;;;;;;;8.11;100.00;95154.44;5107450;28;20091;-80
2023/10/25 07:31:10;;;;;;;;;;;;;;;8.06;100.00;95155.13;5106554;28;19960;-79
2023/10/25 07:33:38;;;;;;;;;;;;;;;7.98;100.00;95149.47;5107413;28;20124;-79
2023/10/25 07:36:04;;;;;;;;;;;;;;;7.91;100.00;95141.78;5084725;28;20155;-79
2023/10/25 07:38:29;;;;;;;;;;;;;;;7.86;100.00;95145.09;5084899;28;19959;-79
2023/10/25 07:40:55;;;;;;;;;;;;;;;7.84;100.00;95141.13;5084892;28;20125;-79
2023/10/25 07:43:21;;;;;;;;;;;;;;;7.77;100.00;95143.88;5084710;28;19938;-79
2023/10/25 07:45:47;;;;;;;;;;;;;;;7.69;100.00;95141.63;5085111;28;20000;-72
2023/10/25 07:48:13;;;;;;;;;;;;;;;7.66;100.00;95134.25;5084590;28;20022;-75
2023/10/25 07:50:39;;;;;;;;;;;;;;;7.63;100.00;95132.13;5084600;28;19941;-73
2023/10/25 07:53:04;;;;;;;;;;;;;;;7.64;100.00;95124.06;5085292;28;20152;-73
2023/10/25 07:55:30;;;;;;;;;;;;;;;7.79;100.00;95117.53;5084416;28;20122;-73
2023/10/25 07:57:56;;;;;;;;;;;;;;;7.90;100.00;95125.34;5084311;28;20274;-73
2023/10/25 08:00:22;;;;;;;;;;;;;;;7.94;100.00;95123.06;5084228;28;19944;-73
2023/10/25 08:02:48;;;;;;;;;;;;;;;7.96;100.00;95110.56;5084511;28;19976;-73
2023/10/25 08:05:14;;;;;;;;;;;;;;;8.00;100.00;95113.47;5084745;28;19939;-73
2023/10/25 08:07:41;;;;;;;;;;;;;;;7.96;100.00;95114.97;5101194;28;20178;-73
2023/10/25 08:10:08;;;;;;;;;;;;;;;7.93;100.00;95105.81;5106083;28;19948;-73
2023/10/25 08:12:34;;;;;;;;;;;;;;;7.94;100.00;95102.19;5105635;28;19940;-73
2023/10/25 08:15:00;;;;;;;;;;;;;;;7.97;100.00;95104.31;5106223;28;19938;-73
2023/10/25 08:17:26;;;;;;;;;;;;;;;8.00;100.00;95096.03;5105824;28;19970;-73
2023/10/25 08:19:52;;;;;;;;;;;;;;;8.06;100.00;95097.69;5105829;28;19962;-74
2023/10/25 08:22:18;;;;;;;;;;;;;;;8.11;100.00;95092.56;5106371;28;19936;-73
2023/10/25 08:24:44;;;;;;;;;;;;;;;8.13;100.00;95087.09;5106137;28;20215;-80
2023/10/25 08:27:10;;;;;;;;;;;;;;;8.13;100.00;95084.50;5104566;28;20231;-80
2023/10/25 08:29:35;;;;;;;;;;;;;;;8.16;100.00;95084.00;5105410;28;19940;-80
2023/10/25 08:32:01;;;;;;;;;;;;;;;8.23;100.00;95086.47;5105147;28;19945;-80
2023/10/25 08:34:30;;;;;;;;;;;;;;;8.29;100.00;95078.50;5103872;28;20144;-80
2023/10/25 08:36:56;;;;;;;;;;;;;;;8.31;100.00;95086.84;5103988;28;19933;-81
2023/10/25 08:39:22;;;;;;;;;;;;;;;8.31;100.00;95078.25;5104017;28;19981;-80
2023/10/25 08:41:50;;;;;;;;;;;;;;;8.31;100.00;95075.63;5104100;28;19939;-80
2023/10/25 08:44:16;;;;;;;;;;;;;;;8.29;100.00;95078.50;5086979;28;19957;-72
2023/10/25 08:46:42;;;;;;;;;;;;;;;8.31;100.00;95071.19;5086758;28;19940;-72
2023/10/25 08:49:08;;;;;;;;;;;;;;;8.33;100.00;95063.13;5103689;28;20213;-72
2023/10/25 08:51:35;;;;;;;;;;;;;;;8.37;100.00;95060.84;5104395;28;19936;-72
2023/10/25 08:54:01;;;;;;;;;;;;;;;8.43;100.00;95059.91;5103522;28;20247;-72
2023/10/25 08:56:27;;;;;;;;;;;;;;;8.47;100.00;95061.03;5103536;28;19933;-72
2023/10/25 08:58:56;;;;;;;;;;;;;;;8.52;100.00;95055.88;5103341;28;19981;-72
2023/10/25 09:01:22;;;;;;;;;;;;;;;8.57;100.00;95052.53;5103453;28;20237;-76
2023/10/25 09:03:48;;;;;;;;;;;;;;;8.60;100.00;95055.47;5086443;28;19934;-79
2023/10/25 09:06:24;;;;;;;;;;;;;;;8.62;100.00;95055.22;5104894;28;20005;-79
2023/10/25 09:08:59;;;;;;;;;;;;;;;8.63;100.00;95047.16;5105767;28;19931;-79
2023/10/25 09:11:25;;;;;;;;;;;;;;;8.65;100.00;95063.41;5104991;28;19937;-79
2023/10/25 09:13:55;;;;;;;;;;;;;;;8.63;100.00;95062.84;5105536;28;19930;-79
2023/10/25 09:16:24;;;;;;;;;;;;;;;8.62;100.00;95065.69;5104712;28;19968;-78
2023/10/25 09:18:50;;;;;;;;;;;;;;;8.64;100.00;95066.25;5105601;28;19963;-78
2023/10/25 09:21:24;;;;;;;;;;;;;;;8.64;100.00;95058.41;5104810;28;19937;-80
2023/10/25 09:23:59;;;;;;;;;;;;;;;8.69;100.00;95034.94;5105278;28;19959;-81
2023/10/25 09:26:25;;;;;;;;;;;;;;;8.77;100.00;95038.97;5103499;28;20240;-81
2023/10/25 09:28:54;;;;;;;;;;;;;;;8.85;100.00;95034.13;5104678;28;19937;-81
2023/10/25 09:31:22;;;;;;;;;;;;;;;8.92;100.00;95028.72;5104192;28;19976;-81
2023/10/25 09:33:48;;;;;;;;;;;;;;;8.98;100.00;95025.13;5086926;28;19951;-81
2023/10/25 09:36:14;;;;;;;;;;;;;;;9.09;100.00;95029.47;5103454;28;19957;-81
2023/10/25 09:38:40;;;;;;;;;;;;;;;9.22;100.00;95020.47;5104111;28;20154;-72
2023/10/25 09:41:10;;;;;;;;;;;;;;;9.37;100.00;95019.06;5105268;28;19946;-78
2023/10/25 09:43:36;;;;;;;;;;;;;;;9.60;100.00;95016.16;5104419;28;19937;-78
2023/10/25 09:46:05;;;;;;;;;;;;;;;9.82;100.00;95010.88;5103953;28;19941;-78
2023/10/25 09:48:35;;;;;;;;;;;;;;;9.98;100.00;95006.56;5104394;28;19934;-78
2023/10/25 09:51:01;;;;;;;;;;;;;;;10.05;100.00;95007.13;5104245;28;19941;-78
2023/10/25 09:53:28;;;;;;;;;;;;;;;10.10;100.00;94999.34;5104818;28;20002;-78
2023/10/25 09:55:57;;;;;;;;;;;;;;;10.16;100.00;94980.00;5104264;28;19934;-77
2023/10/25 09:58:24;;;;;;;;;;;;;;;10.24;100.00;94983.19;5104143;28;19953;-76
2023/10/25 10:00:50;;;;;;;;;;;;;;;10.27;100.00;94986.09;5104266;28;19940;-76
2023/10/25 10:03:18;;;;;;;;;;;;;;;10.26;100.00;94979.28;5104210;28;19936;-76
2023/10/25 10:05:51;;;;;;;;;;;;;;;10.24;100.00;94970.09;5104188;28;19944;-76
2023/10/25 10:08:19;;;;;;;;;;;;;;;10.25;100.00;94969.84;5104664;28;19940;-76
2023/10/25 10:11:05;;;;;;;;;;;;;;;10.24;100.00;94976.09;5104167;28;20220;-76
2023/10/25 10:13:31;;;;;;;;;;;;;;;10.27;100.00;94969.59;5103736;28;19963;-76
2023/10/25 10:16:01;;;;;;;;;;;;;;;10.31;100.00;94965.44;5104477;28;19958;-79
2023/10/25 10:18:37;;;;;;;;;;;;;;;10.34;100.00;94955.25;5104303;28;19949;-72
2023/10/25 10:21:04;;;;;;;;;;;;;;;10.40;100.00;94955.31;5103470;28;20217;-72
2023/10/25 10:23:34;;;;;;;;;;;;;;;10.47;100.00;94943.53;5104001;28;19932;-72
2023/10/25 10:26:01;;;;;;;;;;;;;;;10.56;100.00;94939.41;5103926;28;19964;-73
2023/10/25 10:28:42;;;;;;;;;;;;;;;10.67;100.00;94929.75;5104006;28;19942;-73
2023/10/25 10:31:09;;;;;;;;;;;;;;;10.79;100.00;94924.28;5103842;28;19943;-73
2023/10/25 10:33:45;;;;;;;;;;;;;;;10.86;100.00;94919.59;5103991;28;19940;-73
2023/10/25 10:36:11;;;;;;;;;;;;;;;10.92;100.00;94909.94;5102967;28;19976;-82
2023/10/25 10:38:55;;;;;;;;;;;;;;;10.97;100.00;94908.09;5106730;28;19958;-82
2023/10/25 10:41:28;;;;;;;;;;;;;;;11.02;100.00;94898.66;5108101;28;19939;-81
2023/10/25 10:43:55;;;;;;;;;;;;;;;11.05;100.00;94898.16;5107816;28;19941;-83
2023/10/25 10:46:23;;;;;;;;;;;;;;;11.07;100.00;94901.31;5106577;28;19938;-82
2023/10/25 10:48:50;;;;;;;;;;;;;;;11.09;100.00;94891.34;5108532;28;19945;-82
2023/10/25 10:51:16;;;;;;;;;;;;;;;11.12;100.00;94881.13;5107882;28;19933;-73
2023/10/25 10:53:42;;;;;;;;;;;;;;;11.17;100.00;94877.72;5107587;28;19964;-74
2023/10/25 10:56:08;;;;;;;;;;;;;;;11.20;100.00;94876.41;5106492;28;20245;-73
2023/10/25 10:58:34;;;;;;;;;;;;;;;11.23;100.00;94862.78;5107112;28;19966;-73
2023/10/25 11:01:00;;;;;;;;;;;;;;;11.27;100.00;94864.59;5106248;28;19936;-74
2023/10/25 11:03:27;;;;;;;;;;;;;;;11.34;100.00;94854.66;5108029;28;19938;-74
2023/10/25 11:05:53;;;;;;;;;;;;;;;11.43;100.00;94852.31;5108170;28;19933;-75
2023/10/25 11:08:21;;;;;;;;;;;;;;;11.57;100.00;94853.34;5107313;28;20146;-79
2023/10/25 11:10:46;;;;;;;;;;;;;;;11.74;100.00;94839.94;5107287;28;19939;-76
2023/10/25 11:13:13;;;;;;;;;;;;;;;11.88;100.00;94828.91;5108006;28;19935;-72
2023/10/25 11:15:39;;;;;;;;;;;;;;;11.95;100.00;94818.94;5107037;28;19958;-73
2023/10/25 11:18:06;;;;;;;;;;;;;;;12.07;100.00;94810.75;5106501;28;20125;-73
2023/10/25 11:20:32;;;;;;;;;;;;;;;12.17;100.00;94802.84;5107053;28;19970;-73
2023/10/25 11:22:57;;;;;;;;;;;;;;;12.26;100.00;94797.81;5107289;28;19945;-74
2023/10/25 11:25:27;;;;;;;;;;;;;;;12.34;100.00;94794.63;5105899;28;19940;-73
2023/10/25 11:27:55;;;;;;;;;;;;;;;12.42;100.00;94791.44;5105803;28;20147;-73
2023/10/25 11:30:21;;;;;;;;;;;;;;;12.53;100.00;94785.06;5105188;28;19935;-73
2023/10/25 11:32:48;;;;;;;;;;;;;;;12.67;100.00;94790.53;5105163;28;19943;-74
2023/10/25 11:35:21;;;;;;;;;;;;;;;12.82;100.00;94783.63;5105262;28;19958;-73
2023/10/25 11:37:47;;;;;;;;;;;;;;;12.95;100.00;94783.00;5105013;28;19941;-73
2023/10/25 11:40:13;;;;;;;;;;;;;;;13.03;100.00;94781.66;5104937;28;19953;-73
2023/10/25 11:42:40;;;;;;;;;;;;;;;13.03;100.00;94777.16;5105455;28;19939;-73
2023/10/25 11:45:06;;;;;;;;;;;;;;;13.01;100.00;94771.41;5104902;28;19940;-73
2023/10/25 11:47:33;;;;;;;;;;;;;;;12.99;100.00;94758.50;5088630;28;19970;-79
2023/10/25 11:50:00;;;;;;;;;;;;;;;12.99;100.00;94758.50;5105595;28;20069;-74
2023/10/25 11:52:26;;;;;;;;;;;;;;;12.96;100.00;94743.28;5104842;28;19935;-74
2023/10/25 11:54:55;;;;;;;;;;;;;;;12.96;100.00;94753.03;5104717;28;19939;-74
2023/10/25 11:57:22;;;;;;;;;;;;;;;13.02;100.00;94740.59;5104920;28;19938;-74
2023/10/25 11:59:48;;;;;;;;;;;;;;;13.06;100.00;94737.16;5088287;28;19957;-74
2023/10/25 12:02:14;;;;;;;;;;;;;;;13.15;100.00;94740.78;5089492;28;19938;-74
2023/10/25 12:04:40;;;;;;;;;;;;;;;13.22;100.00;94731.78;5106262;28;20000;-84
2023/10/25 12:07:06;;;;;;;;;;;;;;;13.25;100.00;94732.00;5089037;28;20119;-73
2023/10/25 12:09:32;;;;;;;;;;;;;;;13.34;100.00;94734.84;5106205;28;19932;-73
2023/10/25 12:11:57;;;;;;;;;;;;;;;13.51;100.00;94723.91;5106119;28;20005;-74
2023/10/25 12:14:23;;;;;;;;;;;;;;;13.64;100.00;94728.50;5106021;28;19938;-73
2023/10/25 12:16:49;;;;;;;;;;;;;;;13.67;100.00;94708.72;5106025;28;19964;-73
2023/10/25 12:19:15;;;;;;;;;;;;;;;13.65;100.00;94708.22;5105888;28;19952;-73
2023/10/25 12:21:41;;;;;;;;;;;;;;;13.58;100.00;94701.44;5106218;28;19950;-75
2023/10/25 12:24:07;;;;;;;;;;;;;;;13.59;100.00;94712.78;5104821;28;19934;-74
2023/10/25 12:26:33;;;;;;;;;;;;;;;13.54;100.00;94710.16;5105832;28;19939;-74
2023/10/25 12:28:58;;;;;;;;;;;;;;;13.48;100.00;94703.38;5105712;28;20246;-74
2023/10/25 12:31:24;;;;;;;;;;;;;;;13.40;100.00;94699.53;5105682;28;19942;-75
2023/10/25 12:33:50;;;;;;;;;;;;;;;13.33;100.00;94701.69;5105655;28;19973;-74
2023/10/25 12:36:16;;;;;;;;;;;;;;;13.25;100.00;94699.63;5105514;28;19998;-74
2023/10/25 12:38:44;;;;;;;;;;;;;;;13.20;100.00;94695.97;5105540;28;19949;-73
2023/10/25 12:41:09;;;;;;;;;;;;;;;13.22;100.00;94706.22;5104431;28;19942;-80
2023/10/25 12:43:35;;;;;;;;;;;;;;;13.31;100.00;94709.06;5105802;28;19946;-73